Time;durP1;ratioP1;P1;durP2;ratioP2;P2;SDS_P1;SDS_P2;PMS_P1;PMS_P2;Temp;Humidity;BMP_temperature;BMP_pressure;BME280_temperature;BME280_humidity;BME280_pressure;Samples;Min_cycle;Max_cycle;Signal;HPM_P1;HPM_P2
2022/01/03 00:00:13;;;;;;;3.90;1.83;;;17.90;60.20;;;;;;5051092;28;20248;-58
2022/01/03 00:02:39;;;;;;;3.70;1.08;;;17.90;60.20;;;;;;5050945;28;20187;-58
2022/01/03 00:05:05;;;;;;;4.80;1.48;;;17.90;60.10;;;;;;5050565;28;20195;-58
2022/01/03 00:07:32;;;;;;;4.03;1.67;;;17.90;60.10;;;;;;5050965;28;20728;-58
2022/01/03 00:09:57;;;;;;;5.25;1.50;;;17.80;60.10;;;;;;5049536;28;20265;-58
2022/01/03 00:12:23;;;;;;;3.47;1.48;;;17.80;59.90;;;;;;5049677;28;20374;-59
2022/01/03 00:14:49;;;;;;;3.63;1.70;;;17.80;59.90;;;;;;5049894;28;20266;-59
2022/01/03 00:17:14;;;;;;;4.47;1.50;;;17.80;60.00;;;;;;5050525;28;20217;-59
2022/01/03 00:19:40;;;;;;;4.70;1.60;;;17.80;59.90;;;;;;5050699;28;20175;-58
2022/01/03 00:22:06;;;;;;;3.83;1.50;;;17.80;60.00;;;;;;5051119;28;20626;-59
2022/01/03 00:24:33;;;;;;;3.92;1.60;;;17.80;60.00;;;;;;5050088;28;20548;-59
2022/01/03 00:27:01;;;;;;;4.22;1.55;;;17.80;59.90;;;;;;5050875;28;20211;-60
2022/01/03 00:29:29;;;;;;;5.32;1.67;;;17.80;60.00;;;;;;5051784;28;20179;-59
2022/01/03 00:31:56;;;;;;;3.63;1.70;;;17.80;60.00;;;;;;5052681;28;20645;-59
2022/01/03 00:34:21;;;;;;;2.83;1.50;;;17.80;59.90;;;;;;5054349;28;20566;-59
2022/01/03 00:36:47;;;;;;;3.08;1.30;;;17.80;59.90;;;;;;5054406;28;20258;-58
2022/01/03 00:39:13;;;;;;;3.97;1.55;;;17.80;60.00;;;;;;5052486;28;20607;-59
2022/01/03 00:41:40;;;;;;;4.13;1.60;;;17.70;59.90;;;;;;5054064;28;20179;-59
2022/01/03 00:44:06;;;;;;;5.50;1.65;;;17.80;60.00;;;;;;5054441;28;20179;-59
2022/01/03 00:46:32;;;;;;;4.80;1.65;;;17.70;59.90;;;;;;5053282;28;20214;-59
2022/01/03 00:48:59;;;;;;;6.90;2.40;;;17.70;59.90;;;;;;5054393;28;20297;-59
2022/01/03 00:51:24;;;;;;;5.63;1.50;;;17.70;59.90;;;;;;5053920;28;20230;-59
2022/01/03 00:53:51;;;;;;;5.30;1.75;;;17.70;59.90;;;;;;5053375;28;20172;-59
2022/01/03 00:56:26;;;;;;;3.50;1.77;;;17.70;59.90;;;;;;5054178;28;20183;-59
2022/01/03 00:59:11;;;;;;;4.75;2.10;;;17.70;59.90;;;;;;5052973;28;20179;-58
2022/01/03 01:01:38;;;;;;;7.10;1.80;;;17.70;59.90;;;;;;5053859;28;20235;-59
2022/01/03 01:04:03;;;;;;;5.97;1.80;;;17.70;59.90;;;;;;5054319;28;20324;-59
2022/01/03 01:06:33;;;;;;;5.20;1.50;;;17.70;59.90;;;;;;5051430;28;20297;-59
2022/01/03 01:08:58;;;;;;;5.05;1.67;;;17.70;59.90;;;;;;5053831;28;20213;-59
2022/01/03 01:11:27;;;;;;;5.47;2.00;;;17.60;59.80;;;;;;5052142;28;20199;-59
2022/01/03 01:13:53;;;;;;;4.47;2.00;;;17.70;59.90;;;;;;5053152;28;20167;-59
2022/01/03 01:16:18;;;;;;;4.38;2.10;;;17.60;59.80;;;;;;5052159;28;20325;-59
2022/01/03 01:18:44;;;;;;;5.40;1.67;;;17.60;59.80;;;;;;5052237;28;20644;-59
2022/01/03 01:21:10;;;;;;;4.78;2.08;;;17.60;59.80;;;;;;5052845;28;20317;-60
2022/01/03 01:23:39;;;;;;;6.32;1.83;;;17.60;59.80;;;;;;5053381;28;20175;-59
2022/01/03 01:28:49;;;;;;;5.82;1.80;;;17.60;59.80;;;;;;5053026;28;20182;-58
2022/01/03 01:31:20;;;;;;;4.55;1.80;;;17.60;59.80;;;;;;5052193;28;20175;-58
2022/01/03 01:33:45;;;;;;;6.95;2.00;;;17.60;59.70;;;;;;5053426;28;20189;-58
2022/01/03 01:36:13;;;;;;;6.47;1.65;;;17.60;59.70;;;;;;5053005;28;20277;-58
2022/01/03 01:38:38;;;;;;;5.88;2.13;;;17.60;59.70;;;;;;5051740;28;20175;-58
2022/01/03 01:41:05;;;;;;;7.53;2.13;;;17.60;59.80;;;;;;5052468;28;20190;-58
2022/01/03 01:43:44;;;;;;;4.45;1.70;;;17.60;59.80;;;;;;5052329;28;20562;-59
2022/01/03 01:46:15;;;;;;;5.22;1.92;;;17.60;59.80;;;;;;5053026;28;20696;-59
2022/01/03 01:48:43;;;;;;;5.32;1.98;;;17.60;59.80;;;;;;5052399;28;20182;-59
2022/01/03 01:51:10;;;;;;;6.15;2.15;;;17.60;59.70;;;;;;5052836;28;20659;-60
2022/01/03 01:53:44;;;;;;;5.57;2.00;;;17.60;59.80;;;;;;5052846;28;20187;-59
2022/01/03 01:56:24;;;;;;;5.05;2.00;;;17.60;59.80;;;;;;5052213;28;20179;-60
2022/01/03 01:58:53;;;;;;;5.10;2.15;;;17.60;59.80;;;;;;5053186;28;20178;-60
2022/01/03 02:01:18;;;;;;;6.32;2.10;;;17.60;59.70;;;;;;5051646;28;20183;-59
2022/01/03 02:04:06;;;;;;;3.95;2.25;;;17.50;59.60;;;;;;5050750;28;20174;-59
2022/01/03 02:06:43;;;;;;;5.07;1.80;;;17.50;59.60;;;;;;5051299;28;20286;-59
2022/01/03 02:09:17;;;;;;;5.95;2.30;;;17.50;59.60;;;;;;5052665;28;20550;-60
2022/01/03 02:11:54;;;;;;;6.32;2.05;;;17.50;59.70;;;;;;5052023;28;20166;-59
2022/01/03 02:14:21;;;;;;;5.00;1.92;;;17.60;59.70;;;;;;5052317;28;20614;-58
2022/01/03 02:16:47;;;;;;;5.30;2.10;;;17.50;59.60;;;;;;5051774;28;20171;-59
2022/01/03 02:19:12;;;;;;;5.35;2.17;;;17.50;59.60;;;;;;5052489;28;20185;-59
2022/01/03 02:21:38;;;;;;;6.15;2.47;;;17.50;59.60;;;;;;5051982;28;20589;-58
2022/01/03 02:24:04;;;;;;;6.22;2.42;;;17.50;59.60;;;;;;5051806;28;20342;-58
2022/01/03 02:26:30;;;;;;;7.18;2.00;;;17.50;59.60;;;;;;5052142;28;20206;-59
2022/01/03 02:28:55;;;;;;;6.45;1.92;;;17.50;59.60;;;;;;5052415;28;20244;-59
2022/01/03 02:31:22;;;;;;;4.07;1.67;;;17.50;59.60;;;;;;5051257;28;20241;-58
2022/01/03 02:33:47;;;;;;;5.75;1.92;;;17.50;59.60;;;;;;5052171;28;20179;-58
2022/01/03 02:36:13;;;;;;;5.78;1.95;;;17.50;59.60;;;;;;5052009;28;20229;-58
2022/01/03 02:38:39;;;;;;;7.20;1.95;;;17.50;59.60;;;;;;5051298;28;20291;-59
2022/01/03 02:41:04;;;;;;;7.47;2.15;;;17.50;59.60;;;;;;5052091;28;20182;-59
2022/01/03 02:43:30;;;;;;;4.45;1.80;;;17.50;59.60;;;;;;5051731;28;20175;-59
2022/01/03 02:45:55;;;;;;;7.10;2.25;;;17.50;59.60;;;;;;5051226;28;20226;-59
2022/01/03 02:48:22;;;;;;;4.57;2.08;;;17.50;59.60;;;;;;5051632;28;20262;-59
2022/01/03 02:50:47;;;;;;;5.65;2.10;;;17.50;59.60;;;;;;5051821;28;20737;-59
2022/01/03 02:53:13;;;;;;;4.65;2.13;;;17.50;59.60;;;;;;5051260;28;20356;-59
2022/01/03 02:55:38;;;;;;;7.10;2.35;;;17.50;59.60;;;;;;5051623;28;20179;-59
2022/01/03 02:58:07;;;;;;;4.85;2.10;;;17.40;59.50;;;;;;5051971;28;20171;-58
2022/01/03 03:00:35;;;;;;;6.15;2.10;;;17.40;59.50;;;;;;5050775;28;20262;-58
2022/01/03 03:03:03;;;;;;;7.32;2.17;;;17.50;59.60;;;;;;5051639;28;20633;-58
2022/01/03 03:05:28;;;;;;;4.93;2.03;;;17.40;59.50;;;;;;5051188;28;20219;-58
2022/01/03 03:07:54;;;;;;;4.72;1.98;;;17.40;59.50;;;;;;5050911;28;20171;-58
2022/01/03 03:10:20;;;;;;;7.97;2.33;;;17.40;59.50;;;;;;5051544;28;20653;-59
2022/01/03 03:12:46;;;;;;;7.03;1.90;;;17.40;59.40;;;;;;5051015;28;20510;-59
2022/01/03 03:15:13;;;;;;;7.68;2.60;;;17.40;59.40;;;;;;5051761;28;20509;-60
2022/01/03 03:17:39;;;;;;;4.43;1.88;;;17.40;59.50;;;;;;5051229;28;20649;-58
2022/01/03 03:20:11;;;;;;;4.38;2.17;;;17.40;59.40;;;;;;5050846;28;20506;-58
2022/01/03 03:22:37;;;;;;;6.75;2.53;;;17.40;59.40;;;;;;5051473;28;20175;-59
2022/01/03 03:25:11;;;;;;;7.50;2.63;;;17.40;59.40;;;;;;5051228;28;20189;-59
2022/01/03 03:27:43;;;;;;;4.65;1.63;;;17.40;59.40;;;;;;5050395;28;20645;-59
2022/01/03 03:30:12;;;;;;;7.68;1.92;;;17.80;59.70;;;;;;5051338;28;20187;-59
2022/01/03 03:32:37;;;;;;;7.95;2.40;;;17.40;59.50;;;;;;5051021;28;20175;-59
2022/01/03 03:35:03;;;;;;;5.25;2.15;;;17.40;59.40;;;;;;5049585;28;20171;-59
2022/01/03 03:37:29;;;;;;;5.90;2.33;;;17.40;59.40;;;;;;5051101;28;20179;-58
2022/01/03 03:39:54;;;;;;;7.57;2.65;;;17.40;59.40;;;;;;5051357;28;20262;-59
2022/01/03 03:42:20;;;;;;;5.18;2.20;;;17.40;59.40;;;;;;5050264;28;20167;-59
2022/01/03 03:44:45;;;;;;;9.13;2.40;;;17.40;59.40;;;;;;5051212;28;20653;-58
2022/01/03 03:47:11;;;;;;;6.38;2.47;;;17.40;59.40;;;;;;5051201;28;20227;-58
2022/01/03 03:49:36;;;;;;;6.10;2.20;;;17.30;59.40;;;;;;5050361;28;20213;-59
2022/01/03 03:52:02;;;;;;;8.75;2.20;;;17.30;59.40;;;;;;5051414;28;20171;-58
2022/01/03 03:54:37;;;;;;;4.82;2.47;;;17.30;59.30;;;;;;5051064;28;20186;-58
2022/01/03 03:57:03;;;;;;;6.97;2.45;;;17.30;59.30;;;;;;5050574;28;20280;-59
2022/01/03 03:59:28;;;;;;;5.57;2.15;;;17.30;59.30;;;;;;5050765;28;20651;-58
2022/01/03 04:01:54;;;;;;;4.57;1.77;;;17.30;59.40;;;;;;5050463;28;20629;-58
2022/01/03 04:04:21;;;;;;;6.13;2.20;;;17.30;59.40;;;;;;5051595;28;20221;-58
2022/01/03 04:06:47;;;;;;;5.93;2.17;;;17.30;59.40;;;;;;5055245;28;20214;-59
2022/01/03 04:09:12;;;;;;;6.43;2.00;;;17.30;59.30;;;;;;5054506;28;20233;-59
2022/01/03 04:11:38;;;;;;;7.10;2.30;;;17.30;59.30;;;;;;5054824;28;21046;-59
2022/01/03 04:14:03;;;;;;;6.38;2.00;;;17.30;59.30;;;;;;5054914;28;20185;-59
2022/01/03 04:16:29;;;;;;;7.70;2.70;;;17.30;59.30;;;;;;5054097;28;20670;-59
2022/01/03 04:18:54;;;;;;;5.55;2.50;;;17.30;59.20;;;;;;5054976;28;20540;-59
2022/01/03 04:21:20;;;;;;;6.90;2.25;;;17.30;59.20;;;;;;5054443;28;20217;-59
2022/01/03 04:23:45;;;;;;;7.85;2.75;;;17.30;59.30;;;;;;5054092;28;20267;-58
2022/01/03 04:26:11;;;;;;;7.85;2.50;;;17.30;59.30;;;;;;5054654;28;20237;-58
2022/01/03 04:28:37;;;;;;;8.10;2.58;;;17.30;59.30;;;;;;5054416;28;20631;-57
2022/01/03 04:31:03;;;;;;;6.20;2.20;;;17.30;59.30;;;;;;5054010;28;20661;-58
2022/01/03 04:33:28;;;;;;;5.57;2.40;;;17.30;59.30;;;;;;5054328;28;20175;-58
2022/01/03 04:35:53;;;;;;;5.90;2.38;;;17.20;59.20;;;;;;5054674;28;20225;-58
2022/01/03 04:38:19;;;;;;;7.22;2.28;;;17.20;59.20;;;;;;5053670;28;20195;-58
2022/01/03 04:40:45;;;;;;;5.60;2.22;;;17.30;59.30;;;;;;5054239;28;20186;-57
2022/01/03 04:43:10;;;;;;;5.07;1.83;;;17.20;59.30;;;;;;5054330;28;20177;-60
2022/01/03 04:45:36;;;;;;;6.47;2.58;;;17.20;59.30;;;;;;5053251;28;20218;-58
2022/01/03 04:48:01;;;;;;;7.82;2.53;;;17.20;59.20;;;;;;5054522;28;20584;-59
2022/01/03 04:50:27;;;;;;;6.85;1.90;;;17.20;59.20;;;;;;5053798;28;20219;-59
2022/01/03 04:52:52;;;;;;;6.85;2.55;;;17.20;59.20;;;;;;5053652;28;20695;-59
2022/01/03 04:55:18;;;;;;;8.57;2.30;;;17.20;59.30;;;;;;5054195;28;20179;-58
2022/01/03 04:57:43;;;;;;;3.85;2.00;;;17.20;59.30;;;;;;5053944;28;20894;-56
2022/01/03 05:00:09;;;;;;;6.75;2.25;;;17.20;59.30;;;;;;5053533;28;20171;-58
2022/01/03 05:02:37;;;;;;;6.28;2.70;;;17.20;59.20;;;;;;5053893;28;20179;-58
2022/01/03 05:05:03;;;;;;;3.63;1.73;;;17.20;59.30;;;;;;5053943;28;20182;-57
2022/01/03 05:07:28;;;;;;;8.18;2.47;;;17.20;59.20;;;;;;5053086;28;20179;-58
2022/01/03 05:09:54;;;;;;;6.75;2.25;;;17.20;59.30;;;;;;5054113;28;20232;-58
2022/01/03 05:12:19;;;;;;;5.35;2.30;;;17.20;59.20;;;;;;5052790;28;20191;-59
2022/01/03 05:14:45;;;;;;;8.95;2.63;;;17.20;59.90;;;;;;5053682;28;20591;-59
2022/01/03 05:17:10;;;;;;;5.78;2.05;;;17.20;59.20;;;;;;5052776;28;20214;-60
2022/01/03 05:19:36;;;;;;;5.72;2.30;;;17.20;59.30;;;;;;5052874;28;20194;-59
2022/01/03 05:22:02;;;;;;;6.63;2.90;;;17.20;59.20;;;;;;5053794;28;20194;-59
2022/01/03 05:24:28;;;;;;;7.28;2.03;;;17.20;59.20;;;;;;5053435;28;20171;-59
2022/01/03 05:26:53;;;;;;;7.70;2.28;;;17.20;59.20;;;;;;5052669;28;20357;-58
2022/01/03 05:29:19;;;;;;;7.22;2.22;;;17.20;59.20;;;;;;5053579;28;20629;-58
2022/01/03 05:31:44;;;;;;;6.72;2.72;;;17.20;59.30;;;;;;5053713;28;20293;-58
2022/01/03 05:34:10;;;;;;;7.57;2.35;;;17.10;59.30;;;;;;5052969;28;20194;-58
2022/01/03 05:36:35;;;;;;;5.00;2.03;;;17.10;59.20;;;;;;5053077;28;20211;-58
2022/01/03 05:39:01;;;;;;;8.02;2.05;;;17.10;59.10;;;;;;5053387;28;20175;-58
2022/01/03 05:41:26;;;;;;;8.18;2.20;;;17.10;59.20;;;;;;5052368;28;20178;-57
2022/01/03 05:43:52;;;;;;;6.15;2.42;;;17.10;59.20;;;;;;5053641;28;20178;-58
2022/01/03 05:46:18;;;;;;;5.00;1.95;;;17.10;59.30;;;;;;5053493;28;20207;-58
2022/01/03 05:48:43;;;;;;;6.65;2.00;;;17.10;59.20;;;;;;5052281;28;20166;-58
2022/01/03 05:51:09;;;;;;;5.97;2.10;;;17.10;59.20;;;;;;5053109;28;20716;-58
2022/01/03 05:53:34;;;;;;;8.20;2.65;;;17.10;59.90;;;;;;5052897;28;20187;-58
2022/01/03 05:56:00;;;;;;;6.85;2.17;;;17.10;59.20;;;;;;5052371;28;20181;-59
2022/01/03 05:58:25;;;;;;;6.75;2.00;;;17.10;59.30;;;;;;5052975;28;20504;-58
2022/01/03 06:00:51;;;;;;;7.65;2.90;;;17.10;59.20;;;;;;5053109;28;20221;-58
2022/01/03 06:03:20;;;;;;;7.15;2.00;;;17.10;59.20;;;;;;5052464;28;20191;-59
2022/01/03 06:06:16;;;;;;;6.63;2.30;;;17.10;59.20;;;;;;5052904;28;20219;-58
2022/01/03 06:08:40;;;;;;;10.13;2.65;;;17.10;59.30;;;;;;5051796;28;20187;-58
2022/01/03 06:11:06;;;;;;;6.05;2.25;;;17.10;59.20;;;;;;5053173;28;20229;-59
2022/01/03 06:13:31;;;;;;;8.75;2.58;;;17.10;59.20;;;;;;5052504;28;20175;-58
2022/01/03 06:15:57;;;;;;;6.25;2.30;;;17.10;59.20;;;;;;5051915;28;20545;-58
2022/01/03 06:18:22;;;;;;;5.25;2.40;;;17.10;59.20;;;;;;5052448;28;20171;-59
2022/01/03 06:20:48;;;;;;;6.03;2.78;;;17.10;59.20;;;;;;5052515;28;20179;-58
2022/01/03 06:23:14;;;;;;;6.15;2.30;;;17.10;59.20;;;;;;5051760;28;20186;-58
2022/01/03 06:25:40;;;;;;;4.90;2.03;;;17.10;59.20;;;;;;5052285;28;20222;-58
2022/01/03 06:28:09;;;;;;;5.57;1.90;;;17.10;59.20;;;;;;5052135;28;20544;-58
2022/01/03 06:30:35;;;;;;;7.53;2.00;;;17.00;59.20;;;;;;5051512;28;20178;-58
2022/01/03 06:33:00;;;;;;;6.78;2.28;;;17.00;59.20;;;;;;5052589;28;20186;-59
2022/01/03 06:35:26;;;;;;;7.97;2.55;;;17.10;59.20;;;;;;5052014;28;20175;-58
2022/01/03 06:37:51;;;;;;;7.72;2.40;;;17.00;59.10;;;;;;5051549;28;20186;-58
2022/01/03 06:40:17;;;;;;;6.30;2.63;;;17.00;59.10;;;;;;5052350;28;20179;-58
2022/01/03 06:42:42;;;;;;;5.03;2.35;;;17.10;59.20;;;;;;5052091;28;20171;-57
2022/01/03 06:45:08;;;;;;;8.80;2.40;;;17.00;59.20;;;;;;5051590;28;20174;-58
2022/01/03 06:47:34;;;;;;;7.55;2.88;;;17.00;59.20;;;;;;5051830;28;20351;-56
2022/01/03 06:49:59;;;;;;;6.50;2.35;;;17.00;59.20;;;;;;5051924;28;20233;-59
2022/01/03 06:52:25;;;;;;;8.35;2.58;;;17.00;59.20;;;;;;5051142;28;20183;-58
2022/01/03 06:54:50;;;;;;;5.15;2.40;;;17.00;59.20;;;;;;5052195;28;20207;-57
2022/01/03 06:57:16;;;;;;;6.97;2.20;;;17.00;59.20;;;;;;5052205;28;20175;-58
2022/01/03 06:59:41;;;;;;;5.43;2.00;;;17.00;59.20;;;;;;5051007;28;20305;-57
2022/01/03 07:02:07;;;;;;;6.22;2.40;;;17.00;59.20;;;;;;5052100;28;20175;-58
2022/01/03 07:04:33;;;;;;;5.05;2.17;;;17.00;59.20;;;;;;5051633;28;20175;-59
2022/01/03 07:06:58;;;;;;;5.50;2.55;;;17.00;59.20;;;;;;5050939;28;20741;-58
2022/01/03 07:09:24;;;;;;;6.53;2.63;;;17.00;59.20;;;;;;5051886;28;20509;-58
2022/01/03 07:11:49;;;;;;;5.93;2.38;;;17.00;59.20;;;;;;5051010;28;20201;-59
2022/01/03 07:19:46;;;;;;;5.40;2.35;;;17.00;59.20;;;;;;5050882;28;20182;-58
2022/01/03 07:22:12;;;;;;;6.15;2.30;;;17.00;59.10;;;;;;5051735;28;20194;-59
2022/01/03 07:24:38;;;;;;;6.72;2.25;;;16.90;59.10;;;;;;5051425;28;20179;-58
2022/01/03 07:27:04;;;;;;;6.78;2.28;;;17.00;59.10;;;;;;5051007;28;20693;-59
2022/01/03 07:29:30;;;;;;;6.55;2.47;;;17.10;59.20;;;;;;5051302;28;20183;-60
2022/01/03 07:31:55;;;;;;;6.05;2.20;;;17.00;59.20;;;;;;5051454;28;20540;-57
2022/01/03 07:34:21;;;;;;;5.38;1.98;;;17.00;59.20;;;;;;5050648;28;20178;-58
2022/01/03 07:36:46;;;;;;;6.78;1.95;;;17.00;59.20;;;;;;5051498;28;20186;-58
2022/01/03 07:39:12;;;;;;;6.30;2.30;;;17.00;59.10;;;;;;5051916;28;20258;-59
2022/01/03 07:41:37;;;;;;;7.75;2.53;;;17.10;59.30;;;;;;5054713;28;20501;-57
2022/01/03 07:44:03;;;;;;;5.38;1.88;;;17.20;59.80;;;;;;5055394;28;20171;-59
2022/01/03 07:46:29;;;;;;;4.05;1.42;;;17.30;59.10;;;;;;5055230;28;20393;-58
2022/01/03 07:48:54;;;;;;;5.65;2.08;;;17.40;59.00;;;;;;5054938;28;20182;-58
2022/01/03 07:51:20;;;;;;;4.97;2.38;;;17.40;58.80;;;;;;5055002;28;20226;-58
2022/01/03 07:53:45;;;;;;;3.80;2.10;;;17.50;58.60;;;;;;5055413;28;20684;-59
2022/01/03 07:56:11;;;;;;;3.70;1.98;;;17.60;58.60;;;;;;5054743;28;20179;-60
2022/01/03 07:58:37;;;;;;;5.38;1.83;;;17.70;58.40;;;;;;5055048;28;20171;-58
2022/01/03 08:01:03;;;;;;;5.40;2.00;;;17.80;58.10;;;;;;5054609;28;20175;-59
2022/01/03 08:03:29;;;;;;;4.80;2.03;;;17.90;58.00;;;;;;5055199;28;20604;-59
2022/01/03 08:05:55;;;;;;;7.47;2.05;;;18.00;57.90;;;;;;5055334;28;20679;-59
2022/01/03 08:08:20;;;;;;;3.78;2.03;;;18.10;57.80;;;;;;5054388;28;20190;-61
2022/01/03 08:10:46;;;;;;;5.07;2.25;;;18.10;57.70;;;;;;5054838;28;20651;-63
2022/01/03 08:13:15;;;;;;;4.85;2.00;;;18.20;57.60;;;;;;5054798;28;20175;-63
2022/01/03 08:15:40;;;;;;;5.63;1.90;;;18.20;57.70;;;;;;5053372;28;20676;-63
2022/01/03 08:18:09;;;;;;;4.88;2.08;;;18.30;57.60;;;;;;5054685;28;20179;-63
2022/01/03 08:20:35;;;;;;;6.07;2.33;;;18.30;57.70;;;;;;5054139;28;20630;-62
2022/01/03 08:23:00;;;;;;;5.03;1.73;;;18.40;57.80;;;;;;5053770;28;20179;-62
2022/01/03 08:25:26;;;;;;;3.78;1.75;;;18.40;57.80;;;;;;5054030;28;20191;-62
2022/01/03 08:27:51;;;;;;;4.50;1.83;;;18.50;57.60;;;;;;5054283;28;20240;-61
2022/01/03 08:30:17;;;;;;;7.60;2.50;;;18.50;57.70;;;;;;5053271;28;20187;-62
2022/01/03 08:32:42;;;;;;;4.20;2.15;;;18.50;57.50;;;;;;5054171;28;20587;-63
2022/01/03 08:35:08;;;;;;;6.47;2.20;;;18.50;57.60;;;;;;5054341;28;20171;-62
2022/01/03 08:37:34;;;;;;;5.40;2.17;;;18.50;57.80;;;;;;5052954;28;20175;-62
2022/01/03 08:40:04;;;;;;;3.92;1.45;;;18.40;57.80;;;;;;5054287;28;20171;-61
2022/01/03 08:42:31;;;;;;;3.90;1.90;;;18.30;57.90;;;;;;5054008;28;20676;-62
2022/01/03 08:44:56;;;;;;;4.50;1.70;;;18.30;58.20;;;;;;5053581;28;20474;-62
2022/01/03 08:47:22;;;;;;;5.97;2.10;;;18.20;58.20;;;;;;5053981;28;20211;-63
2022/01/03 08:49:48;;;;;;;3.95;1.73;;;18.20;58.30;;;;;;5053950;28;20639;-63
2022/01/03 08:52:13;;;;;;;4.53;2.10;;;18.20;58.40;;;;;;5053117;28;20175;-61
2022/01/03 08:54:38;;;;;;;5.07;2.00;;;18.10;58.50;;;;;;5053752;28;20185;-61
2022/01/03 08:57:04;;;;;;;4.68;1.92;;;18.10;58.60;;;;;;5053868;28;20179;-62
2022/01/03 08:59:29;;;;;;;4.18;1.90;;;18.00;58.60;;;;;;5052886;28;20175;-60
2022/01/03 09:02:00;;;;;;;3.85;1.75;;;18.00;58.80;;;;;;5053793;28;20179;-61
2022/01/03 09:04:26;;;;;;;6.15;2.30;;;18.00;59.20;;;;;;5052961;28;20179;-64
2022/01/03 09:06:52;;;;;;;6.93;2.45;;;18.00;59.30;;;;;;5053699;28;20256;-61
2022/01/03 09:09:21;;;;;;;6.47;2.55;;;18.00;59.20;;;;;;5053751;28;20215;-64
2022/01/03 09:11:46;;;;;;;4.18;2.00;;;17.90;59.30;;;;;;5052787;28;20268;-60
2022/01/03 09:14:12;;;;;;;4.40;2.20;;;18.00;59.40;;;;;;5053401;28;20638;-61
2022/01/03 09:16:40;;;;;;;7.72;2.58;;;18.00;59.30;;;;;;5053223;28;20206;-61
2022/01/03 09:19:05;;;;;;;5.63;2.03;;;18.00;59.40;;;;;;5052603;28;20633;-62
2022/01/03 09:21:31;;;;;;;5.05;1.90;;;17.90;59.30;;;;;;5053205;28;20175;-61
2022/01/03 09:24:18;;;;;;;6.00;2.03;;;17.90;59.40;;;;;;5053268;28;20174;-61
2022/01/03 09:29:26;;;;;;;6.35;2.20;;;17.90;59.50;;;;;;5052972;28;20178;-63
2022/01/03 09:31:51;;;;;;;4.25;2.17;;;17.90;59.60;;;;;;5053086;28;20575;-63
2022/01/03 09:34:17;;;;;;;4.63;2.00;;;17.90;59.60;;;;;;5052292;28;20233;-64
2022/01/03 09:36:42;;;;;;;7.88;2.47;;;17.90;59.70;;;;;;5052721;28;20259;-61
2022/01/03 09:39:08;;;;;;;6.75;2.40;;;17.90;59.60;;;;;;5056605;28;20175;-61
2022/01/03 09:41:34;;;;;;;6.22;2.17;;;17.90;59.60;;;;;;5056548;28;20186;-61
2022/01/03 09:44:08;;;;;;;4.57;2.17;;;17.90;59.60;;;;;;5068318;28;20585;-61
2022/01/03 09:46:38;;;;;;;5.50;2.08;;;17.80;59.60;;;;;;5055609;28;20285;-61
2022/01/03 09:49:05;;;;;;;5.95;2.22;;;17.80;59.70;;;;;;5072739;28;20253;-61
2022/01/03 09:51:31;;;;;;;6.15;2.00;;;17.80;59.60;;;;;;5072246;28;20268;-61
2022/01/03 09:54:11;;;;;;;5.35;1.80;;;17.80;59.70;;;;;;5072251;28;20178;-61
2022/01/03 09:56:37;;;;;;;4.85;1.98;;;17.80;59.50;;;;;;5056091;28;20179;-61
2022/01/03 09:59:03;;;;;;;4.22;2.03;;;17.80;59.40;;;;;;5052577;28;20703;-61
2022/01/03 10:01:32;;;;;;;4.88;2.00;;;17.80;59.30;;;;;;5051279;28;20496;-61
2022/01/03 10:03:58;;;;;;;4.97;2.00;;;17.80;59.20;;;;;;5052067;28;20183;-62
2022/01/03 10:06:25;;;;;;;5.65;2.17;;;17.90;59.20;;;;;;5052429;28;20244;-61
2022/01/03 10:08:50;;;;;;;4.57;1.83;;;17.90;59.00;;;;;;5051896;28;20582;-61
2022/01/03 10:11:16;;;;;;;6.15;2.15;;;17.90;59.00;;;;;;5052612;28;20619;-60
2022/01/03 10:13:41;;;;;;;5.28;2.10;;;17.90;59.00;;;;;;5066934;28;20223;-61
2022/01/03 10:16:07;;;;;;;4.72;2.28;;;17.90;58.90;;;;;;5071538;28;20265;-61
2022/01/03 10:18:33;;;;;;;5.97;2.28;;;17.90;59.00;;;;;;5071943;28;20197;-62
2022/01/03 10:20:59;;;;;;;5.28;2.00;;;17.90;59.00;;;;;;5072267;28;20178;-61
2022/01/03 10:23:25;;;;;;;4.85;1.88;;;17.80;59.10;;;;;;5071355;28;20243;-60
2022/01/03 10:25:50;;;;;;;5.35;2.03;;;17.80;59.10;;;;;;5072064;28;20740;-61
2022/01/03 10:28:27;;;;;;;5.03;1.92;;;17.80;59.10;;;;;;5071919;28;20167;-60
2022/01/03 10:30:52;;;;;;;5.95;2.35;;;17.80;59.10;;;;;;5071537;28;20174;-62
2022/01/03 10:33:20;;;;;;;4.13;1.98;;;17.70;59.10;;;;;;5072040;28;20174;-62
2022/01/03 10:35:50;;;;;;;5.05;1.88;;;17.80;59.70;;;;;;5071683;28;20178;-62
2022/01/03 10:38:36;;;;;;;5.07;1.90;;;17.80;59.10;;;;;;5072237;28;20170;-62
2022/01/03 10:41:08;;;;;;;4.25;1.70;;;17.80;59.20;;;;;;5071760;28;20296;-62
2022/01/03 10:43:33;;;;;;;6.22;2.30;;;17.80;59.40;;;;;;5070806;28;20626;-62
2022/01/03 10:45:59;;;;;;;4.00;2.00;;;17.70;59.20;;;;;;5069124;28;20243;-65
2022/01/03 10:48:33;;;;;;;6.25;2.05;;;17.80;59.90;;;;;;5051505;28;20175;-64
2022/01/03 10:51:00;;;;;;;5.28;2.20;;;17.80;59.20;;;;;;5050918;28;20234;-61
2022/01/03 10:53:38;;;;;;;5.88;2.10;;;17.80;59.30;;;;;;5051641;28;20175;-61
2022/01/03 10:56:38;;;;;;;5.00;2.30;;;17.80;59.40;;;;;;5051771;28;20200;-60
2022/01/03 10:59:15;;;;;;;4.22;1.83;;;17.70;59.20;;;;;;5051204;28;20179;-61
2022/01/03 11:02:13;;;;;;;5.00;2.50;;;17.80;59.20;;;;;;5051504;28;20179;-61
2022/01/03 11:13:21;;;;;;;6.38;2.47;;;17.80;59.00;;;;;;5051009;28;20232;-62
2022/01/03 11:15:55;;;;;;;7.60;2.47;;;17.80;59.30;;;;;;5051642;28;20183;-62
2022/01/03 11:18:24;;;;;;;8.15;2.50;;;17.80;59.30;;;;;;5050686;28;20175;-60
2022/01/03 11:21:18;;;;;;;8.32;3.17;;;17.80;59.40;;;;;;5051444;28;20167;-61
2022/01/03 11:23:45;;;;;;;5.60;2.35;;;17.70;59.20;;;;;;5051503;28;20175;-60
2022/01/03 11:26:13;;;;;;;6.18;2.58;;;17.70;59.20;;;;;;5050476;28;20740;-60
2022/01/03 11:28:42;;;;;;;6.25;2.17;;;17.70;59.20;;;;;;5051119;28;20201;-60
2022/01/03 11:31:11;;;;;;;8.02;2.35;;;17.60;59.20;;;;;;5051408;28;20206;-61
2022/01/03 11:33:38;;;;;;;7.07;2.25;;;17.60;59.10;;;;;;5050162;28;20633;-61
2022/01/03 11:36:04;;;;;;;7.30;2.92;;;17.60;59.20;;;;;;5051192;28;20736;-61
2022/01/03 11:38:30;;;;;;;6.25;2.15;;;17.60;59.10;;;;;;5050767;28;20373;-61
2022/01/03 11:41:01;;;;;;;7.80;2.60;;;17.60;59.10;;;;;;5050650;28;20206;-61
2022/01/03 11:43:30;;;;;;;7.00;2.08;;;17.60;59.00;;;;;;5051132;28;20194;-61
2022/01/03 11:45:56;;;;;;;5.07;2.40;;;17.60;59.00;;;;;;5051831;28;20207;-60
2022/01/03 11:48:21;;;;;;;7.00;2.63;;;17.60;59.00;;;;;;5070269;28;20664;-60
2022/01/03 11:50:50;;;;;;;8.77;2.42;;;17.60;59.00;;;;;;5071070;28;20257;-61
2022/01/03 11:53:20;;;;;;;8.50;2.35;;;17.60;59.00;;;;;;5052694;28;20612;-61
2022/01/03 11:55:49;;;;;;;6.13;2.47;;;17.60;59.00;;;;;;5071266;28;20185;-65
2022/01/03 11:58:27;;;;;;;5.78;2.30;;;17.60;59.10;;;;;;5071421;28;20182;-65
2022/01/03 12:03:51;;;;;;;8.18;2.60;;;17.70;59.00;;;;;;5071225;28;20293;-61
2022/01/03 12:06:28;;;;;;;6.18;2.25;;;17.70;58.90;;;;;;5069752;28;20309;-60
2022/01/03 12:09:13;;;;;;;7.95;2.13;;;17.70;58.90;;;;;;5070749;28;20193;-60
2022/01/03 12:11:45;;;;;;;8.75;2.30;;;17.70;58.90;;;;;;5071277;28;20281;-61
2022/01/03 12:14:13;;;;;;;6.80;2.25;;;17.70;58.90;;;;;;5071310;28;20261;-61
2022/01/03 12:16:50;;;;;;;10.63;2.67;;;17.90;59.00;;;;;;5070362;28;20174;-60
2022/01/03 12:19:29;;;;;;;8.93;3.03;;;17.70;59.00;;;;;;5070964;28;20185;-61
2022/01/03 12:22:11;;;;;;;5.18;2.15;;;17.70;59.10;;;;;;5070656;28;20181;-61
2022/01/03 12:25:05;;;;;;;5.10;2.28;;;17.70;59.10;;;;;;5070753;28;20189;-60
2022/01/03 12:27:36;;;;;;;6.65;2.17;;;17.70;59.00;;;;;;5074083;28;20245;-61
2022/01/03 12:30:02;;;;;;;8.85;3.28;;;17.80;58.90;;;;;;5073687;28;20601;-62
2022/01/03 12:32:31;;;;;;;7.80;2.55;;;17.80;58.80;;;;;;5073886;28;20269;-62
2022/01/03 12:35:06;;;;;;;9.02;2.33;;;17.90;58.80;;;;;;5074503;28;20190;-65
2022/01/03 12:37:32;;;;;;;5.85;2.38;;;17.80;58.90;;;;;;5073338;28;20211;-65
2022/01/03 12:40:06;;;;;;;10.32;2.65;;;17.80;59.00;;;;;;5073000;28;20174;-65
2022/01/03 12:42:51;;;;;;;6.50;2.78;;;17.80;59.10;;;;;;5073222;28;20166;-64
2022/01/03 12:45:29;;;;;;;6.25;2.10;;;17.70;59.20;;;;;;5074296;28;20238;-63
2022/01/03 12:48:09;;;;;;;10.00;2.40;;;17.70;59.40;;;;;;5057157;28;20602;-62
2022/01/03 12:50:40;;;;;;;5.75;2.47;;;17.70;59.50;;;;;;5052882;28;20248;-60
2022/01/03 12:53:12;;;;;;;11.52;3.25;;;17.80;59.40;;;;;;5054201;28;20526;-61
2022/01/03 12:55:38;;;;;;;8.23;2.60;;;17.80;59.20;;;;;;5053698;28;20583;-62
2022/01/03 12:58:18;;;;;;;7.13;2.25;;;17.80;59.30;;;;;;5053297;28;20167;-63
2022/01/03 13:00:48;;;;;;;7.78;2.33;;;17.80;59.20;;;;;;5053854;28;20175;-63
2022/01/03 13:03:21;;;;;;;9.50;2.55;;;17.80;59.10;;;;;;5053946;28;20183;-63
2022/01/03 13:06:05;;;;;;;7.00;2.38;;;17.90;59.20;;;;;;5053115;28;20239;-66
2022/01/03 13:08:41;;;;;;;9.68;2.60;;;17.90;59.20;;;;;;5053700;28;20265;-63
2022/01/03 13:11:08;;;;;;;8.60;2.72;;;17.90;59.00;;;;;;5052910;28;20547;-61